Time;durP1;ratioP1;P1;durP2;ratioP2;P2;SDS_P1;SDS_P2;PMS_P1;PMS_P2;Temp;Humidity;BMP_temperature;BMP_pressure;BME280_temperature;BME280_humidity;BME280_pressure;Samples;Min_cycle;Max_cycle;Signal;HPM_P1;HPM_P2
2022/07/31 00:01:50;;;;;;;11.52;3.53;;;;;;;;;;5053567;28;20052;-69
2022/07/31 00:04:16;;;;;;;13.52;3.75;;;;;;;;;;5035657;28;20129;-68
2022/07/31 00:06:43;;;;;;;8.73;3.35;;;;;;;;;;5035845;28;20049;-68
2022/07/31 00:09:09;;;;;;;13.73;3.45;;;;;;;;;;5053207;28;20485;-68
2022/07/31 00:11:35;;;;;;;11.00;3.30;;;;;;;;;;5053375;28;20041;-68
2022/07/31 00:14:01;;;;;;;;;;;;;;;;;;5053790;28;20045;-68
2022/07/31 00:16:27;;;;;;;9.75;3.47;;;;;;;;;;5053159;28;19982;-70
2022/07/31 00:18:53;;;;;;;;;;;;;;;;;;5036497;28;20484;-68
2022/07/31 00:21:19;;;;;;;10.55;4.13;;;;;;;;;;5053240;28;19920;-66
2022/07/31 00:23:45;;;;;;;9.55;3.47;;;;;;;;;;5053020;28;20041;-67
2022/07/31 00:26:11;;;;;;;;;;;;;;;;;;5054283;28;20049;-67
2022/07/31 00:28:37;;;;;;;11.00;3.30;;;;;;;;;;5052856;28;19927;-67
2022/07/31 00:31:03;;;;;;;11.35;3.60;;;;;;;;;;5053219;28;20052;-67
2022/07/31 00:33:29;;;;;;;;;;;;;;;;;;5053823;28;20041;-69
2022/07/31 00:35:55;;;;;;;8.55;3.22;;;;;;;;;;5052717;28;19921;-66
2022/07/31 00:38:21;;;;;;;;;;;;;;;;;;5052845;28;20386;-68
2022/07/31 00:40:48;;;;;;;9.75;3.38;;;;;;;;;;5052948;28;19927;-67
2022/07/31 00:43:15;;;;;;;9.13;3.42;;;;;;;;;;5052775;28;20048;-67
2022/07/31 00:45:41;;;;;;;;;;;;;;;;;;5053240;28;20155;-67
2022/07/31 00:48:07;;;;;;;10.60;3.55;;;;;;;;;;5052816;28;19921;-68
2022/07/31 00:50:33;;;;;;;9.43;3.30;;;;;;;;;;5052698;28;20044;-68
2022/07/31 00:53:00;;;;;;;9.23;3.30;;;;;;;;;;5052679;28;20458;-67
2022/07/31 00:55:26;;;;;;;9.48;3.45;;;;;;;;;;5052765;28;20135;-68
2022/07/31 00:57:52;;;;;;;;;;;;;;;;;;5053846;28;20127;-67
2022/07/31 01:00:18;;;;;;;10.85;3.70;;;;;;;;;;5052128;28;20391;-68
2022/07/31 01:02:44;;;;;;;9.60;3.25;;;;;;;;;;5052602;28;20478;-68
2022/07/31 01:05:10;;;;;;;9.77;3.67;;;;;;;;;;5052680;28;20504;-67
2022/07/31 01:07:36;;;;;;;;;;;;;;;;;;5052645;28;20493;-66
2022/07/31 01:10:04;;;;;;;11.48;3.33;;;;;;;;;;5053046;28;19951;-66
2022/07/31 01:12:37;;;;;;;10.73;3.75;;;;;;;;;;5034856;28;20477;-66
2022/07/31 01:15:06;;;;;;;11.68;4.00;;;;;;;;;;5052603;28;20049;-67
2022/07/31 01:17:34;;;;;;;8.73;3.50;;;;;;;;;;5052599;28;20166;-66
2022/07/31 01:20:00;;;;;;;12.48;3.80;;;;;;;;;;5052554;28;20045;-67
2022/07/31 01:22:26;;;;;;;;;;;;;;;;;;5053102;28;20052;-67
2022/07/31 01:24:58;;;;;;;11.23;3.92;;;;;;;;;;5052408;28;19924;-67
2022/07/31 01:27:43;;;;;;;12.70;3.70;;;;;;;;;;5034919;28;20396;-68
2022/07/31 01:30:09;;;;;;;14.18;4.00;;;;;;;;;;5052902;28;20045;-68
2022/07/31 01:32:37;;;;;;;10.55;3.70;;;;;;;;;;5052436;28;20144;-68
2022/07/31 01:35:19;;;;;;;9.10;3.58;;;;;;;;;;5052068;28;20546;-68
2022/07/31 01:37:51;;;;;;;10.32;3.58;;;;;;;;;;5052004;28;20389;-68
2022/07/31 01:40:25;;;;;;;10.65;4.13;;;;;;;;;;5052877;28;20051;-68
2022/07/31 01:42:54;;;;;;;10.15;3.85;;;;;;;;;;5051073;28;20040;-67
2022/07/31 01:45:21;;;;;;;13.93;4.57;;;;;;;;;;5052167;28;20045;-68
2022/07/31 01:47:48;;;;;;;11.77;4.55;;;;;;;;;;5052543;28;20048;-68
2022/07/31 01:50:15;;;;;;;10.02;3.90;;;;;;;;;;5052268;28;20057;-67
2022/07/31 01:52:41;;;;;;;10.30;3.53;;;;;;;;;;5051125;28;20049;-68
2022/07/31 01:55:09;;;;;;;10.30;4.10;;;;;;;;;;5050950;28;20049;-67
2022/07/31 01:57:36;;;;;;;11.20;4.00;;;;;;;;;;5052227;28;20087;-69
2022/07/31 02:00:04;;;;;;;11.10;4.10;;;;;;;;;;5052612;28;20095;-66
2022/07/31 02:02:30;;;;;;;11.48;4.30;;;;;;;;;;5052402;28;20041;-67
2022/07/31 02:04:56;;;;;;;;;;;;;;;;;;5052463;28;20068;-65
2022/07/31 02:07:24;;;;;;;10.82;4.05;;;;;;;;;;5052401;28;20353;-67
2022/07/31 02:09:50;;;;;;;12.13;4.38;;;;;;;;;;5052152;28;20068;-67
2022/07/31 02:12:17;;;;;;;11.73;4.18;;;;;;;;;;5037220;28;20379;-67
2022/07/31 02:14:43;;;;;;;9.25;4.13;;;;;;;;;;5056002;28;20041;-69
2022/07/31 02:17:11;;;;;;;12.82;4.30;;;;;;;;;;5055570;28;20465;-67
2022/07/31 02:19:38;;;;;;;9.02;3.78;;;;;;;;;;5056293;28;20052;-67
2022/07/31 02:22:05;;;;;;;10.55;4.00;;;;;;;;;;5038087;28;20376;-67
2022/07/31 02:24:31;;;;;;;10.98;4.15;;;;;;;;;;5055411;28;20049;-67
2022/07/31 02:26:58;;;;;;;13.02;3.97;;;;;;;;;;5055255;28;20064;-66
2022/07/31 02:29:24;;;;;;;13.77;4.15;;;;;;;;;;5038000;28;20052;-68
2022/07/31 02:31:54;;;;;;;11.70;4.28;;;;;;;;;;5055423;28;20182;-70
2022/07/31 02:34:22;;;;;;;11.38;3.90;;;;;;;;;;5037983;28;20114;-68
2022/07/31 02:36:48;;;;;;;11.70;4.80;;;;;;;;;;5055426;28;20118;-68
2022/07/31 02:39:14;;;;;;;10.95;4.13;;;;;;;;;;5037750;28;20044;-68
2022/07/31 02:41:41;;;;;;;9.45;4.25;;;;;;;;;;5054854;28;20466;-67
2022/07/31 02:44:08;;;;;;;10.90;4.10;;;;;;;;;;5055447;28;20103;-69
2022/07/31 02:46:35;;;;;;;11.10;4.47;;;;;;;;;;5037082;28;20052;-73
2022/07/31 02:49:01;;;;;;;12.63;4.10;;;;;;;;;;5054884;28;20041;-65
2022/07/31 02:51:28;;;;;;;10.70;4.28;;;;;;;;;;5054907;28;20045;-65
2022/07/31 02:53:54;;;;;;;9.93;4.05;;;;;;;;;;5054805;28;20043;-68
2022/07/31 02:56:20;;;;;;;11.32;4.43;;;;;;;;;;5054505;28;20397;-66
2022/07/31 02:58:46;;;;;;;11.20;4.40;;;;;;;;;;5054553;28;20556;-66
2022/07/31 03:01:13;;;;;;;;;;;;;;;;;;5055695;28;20044;-68
2022/07/31 03:03:39;;;;;;;11.02;4.40;;;;;;;;;;5037603;28;19921;-67
2022/07/31 03:06:05;;;;;;;12.77;4.60;;;;;;;;;;5054918;28;20572;-68
2022/07/31 03:08:31;;;;;;;;;;;;;;;;;;5056145;28;20041;-67
2022/07/31 03:10:57;;;;;;;12.43;4.28;;;;;;;;;;5055412;28;19990;-68
2022/07/31 03:13:24;;;;;;;8.25;3.80;;;;;;;;;;5055925;28;20144;-68
2022/07/31 03:15:50;;;;;;;11.13;4.15;;;;;;;;;;5054862;28;20514;-69
2022/07/31 03:18:18;;;;;;;10.68;4.50;;;;;;;;;;5055088;28;20049;-66
2022/07/31 03:20:45;;;;;;;11.18;4.07;;;;;;;;;;5054940;28;20397;-67
2022/07/31 03:23:12;;;;;;;12.18;4.38;;;;;;;;;;5036649;28;20048;-66
2022/07/31 03:25:38;;;;;;;14.88;4.47;;;;;;;;;;5055059;28;20053;-67
2022/07/31 03:28:04;;;;;;;10.88;4.32;;;;;;;;;;5054717;28;20512;-67
2022/07/31 03:30:30;;;;;;;;;;;;;;;;;;5055458;28;20045;-67
2022/07/31 03:32:57;;;;;;;9.27;4.20;;;;;;;;;;5054578;28;19927;-68
2022/07/31 03:35:24;;;;;;;11.75;4.25;;;;;;;;;;5054439;28;20487;-67
2022/07/31 03:37:50;;;;;;;11.15;3.88;;;;;;;;;;5055271;28;20056;-67
2022/07/31 03:40:16;;;;;;;9.80;3.88;;;;;;;;;;5054015;28;20495;-68
2022/07/31 03:42:43;;;;;;;10.18;4.20;;;;;;;;;;5053574;28;20044;-68
2022/07/31 03:45:10;;;;;;;9.23;3.80;;;;;;;;;;5053458;28;20052;-68
2022/07/31 03:47:36;;;;;;;9.40;3.97;;;;;;;;;;5053449;28;20053;-66
2022/07/31 03:50:03;;;;;;;10.93;3.85;;;;;;;;;;5036472;28;20127;-67
2022/07/31 03:52:30;;;;;;;9.75;3.90;;;;;;;;;;5053152;28;20110;-66
2022/07/31 03:54:57;;;;;;;15.07;4.25;;;;;;;;;;5052775;28;20045;-68
2022/07/31 03:57:22;;;;;;;;;;;;;;;;;;5053841;28;20049;-66
2022/07/31 03:59:49;;;;;;;10.82;4.00;;;;;;;;;;5053220;28;19928;-66
2022/07/31 04:02:16;;;;;;;13.40;4.70;;;;;;;;;;5052510;28;20051;-66
2022/07/31 04:04:43;;;;;;;10.00;4.05;;;;;;;;;;5052750;28;20448;-67
2022/07/31 04:07:09;;;;;;;11.93;3.90;;;;;;;;;;5034964;28;20068;-66
2022/07/31 04:09:37;;;;;;;15.60;4.03;;;;;;;;;;5052485;28;20094;-67
2022/07/31 04:12:03;;;;;;;10.93;3.75;;;;;;;;;;5052809;28;20057;-67
2022/07/31 04:14:30;;;;;;;9.38;4.00;;;;;;;;;;5052453;28;20389;-66
2022/07/31 04:16:56;;;;;;;8.52;3.75;;;;;;;;;;5052648;28;20084;-68
2022/07/31 04:19:22;;;;;;;10.75;4.03;;;;;;;;;;5051200;28;20052;-68
2022/07/31 04:21:49;;;;;;;10.07;3.60;;;;;;;;;;5052314;28;20052;-66
2022/07/31 04:24:15;;;;;;;8.18;3.65;;;;;;;;;;5052447;28;20132;-67
2022/07/31 04:26:42;;;;;;;11.25;4.00;;;;;;;;;;5052378;28;20059;-68
2022/07/31 04:29:08;;;;;;;9.68;3.92;;;;;;;;;;5051967;28;20110;-67
2022/07/31 04:31:34;;;;;;;;;;;;;;;;;;5034791;28;20060;-67
2022/07/31 04:34:01;;;;;;;13.23;4.30;;;;;;;;;;5051416;28;19921;-68
2022/07/31 04:36:28;;;;;;;12.98;4.03;;;;;;;;;;5052425;28;20061;-67
2022/07/31 04:38:53;;;;;;;;;;;;;;;;;;5052378;28;20045;-67
2022/07/31 04:41:19;;;;;;;12.93;4.40;;;;;;;;;;5052095;28;19928;-67
2022/07/31 04:43:45;;;;;;;11.48;4.55;;;;;;;;;;5052038;28;20051;-67
2022/07/31 04:46:12;;;;;;;11.77;4.22;;;;;;;;;;5051330;28;20053;-67
2022/07/31 04:48:38;;;;;;;;;;;;;;;;;;5052275;28;20048;-68
2022/07/31 04:51:04;;;;;;;10.48;4.45;;;;;;;;;;5051880;28;19944;-68
2022/07/31 04:53:30;;;;;;;10.65;4.38;;;;;;;;;;5051687;28;20408;-66
2022/07/31 04:58:42;;;;;;;10.77;4.50;;;;;;;;;;5037534;28;20045;-67
2022/07/31 05:01:07;;;;;;;;;;;;;;;;;;5052128;28;20041;-70
2022/07/31 05:03:34;;;;;;;9.60;4.65;;;;;;;;;;5051817;28;20023;-67
2022/07/31 05:06:10;;;;;;;10.07;4.30;;;;;;;;;;5052470;28;20357;-66
2022/07/31 05:08:36;;;;;;;11.32;4.60;;;;;;;;;;5051816;28;20045;-66
2022/07/31 05:13:46;;;;;;;11.05;4.97;;;;;;;;;;5051831;28;19974;-67
2022/07/31 05:16:12;;;;;;;;;;;;;;;;;;5052232;28;20060;-67
2022/07/31 05:18:38;;;;;;;11.57;5.50;;;;;;;;;;5052578;28;19921;-67
2022/07/31 05:21:04;;;;;;;13.07;5.03;;;;;;;;;;5052299;28;20048;-68
2022/07/31 05:23:30;;;;;;;12.07;5.30;;;;;;;;;;5051767;28;20450;-67
2022/07/31 05:25:56;;;;;;;;;;;;;;;;;;5052090;28;20175;-67
2022/07/31 05:28:22;;;;;;;11.00;5.25;;;;;;;;;;5034114;28;19978;-67
2022/07/31 05:30:48;;;;;;;13.32;5.50;;;;;;;;;;5034032;28;20056;-69
2022/07/31 05:33:14;;;;;;;11.27;5.50;;;;;;;;;;5052101;28;20056;-65
2022/07/31 05:35:40;;;;;;;12.45;5.40;;;;;;;;;;5051968;28;20075;-66
2022/07/31 05:38:07;;;;;;;13.07;5.25;;;;;;;;;;5051576;28;20053;-69
2022/07/31 05:40:33;;;;;;;13.05;6.00;;;;;;;;;;5052362;28;20041;-66
2022/07/31 05:42:59;;;;;;;13.20;5.32;;;;;;;;;;5051526;28;20362;-69
2022/07/31 05:45:25;;;;;;;16.85;6.00;;;;;;;;;;5035803;28;20366;-68
2022/07/31 05:47:51;;;;;;;;;;;;;;;;;;5056222;28;20052;-68
2022/07/31 05:50:17;;;;;;;17.73;5.70;;;;;;;;;;5055601;28;19921;-67
2022/07/31 05:52:43;;;;;;;13.20;5.93;;;;;;;;;;5055404;28;20103;-67
2022/07/31 05:55:09;;;;;;;10.70;5.47;;;;;;;;;;5055369;28;20049;-68
2022/07/31 05:57:35;;;;;;;12.50;5.38;;;;;;;;;;5054979;28;20084;-68
2022/07/31 06:00:01;;;;;;;10.48;5.30;;;;;;;;;;5054968;28;20045;-67
2022/07/31 06:02:27;;;;;;;12.80;5.43;;;;;;;;;;5055058;28;20101;-68
2022/07/31 06:04:53;;;;;;;12.23;5.72;;;;;;;;;;5054748;28;20045;-67
2022/07/31 06:07:19;;;;;;;14.82;5.85;;;;;;;;;;5054857;28;20044;-69
2022/07/31 06:09:45;;;;;;;12.82;6.07;;;;;;;;;;5054997;28;20052;-67
2022/07/31 06:12:11;;;;;;;12.32;5.57;;;;;;;;;;5055663;28;20052;-67
2022/07/31 06:14:37;;;;;;;12.85;6.05;;;;;;;;;;5037798;28;20055;-66
2022/07/31 06:17:07;;;;;;;12.07;5.82;;;;;;;;;;5037931;28;20257;-68
2022/07/31 06:19:33;;;;;;;12.85;6.07;;;;;;;;;;5055090;28;20094;-67
2022/07/31 06:21:59;;;;;;;11.60;5.95;;;;;;;;;;5055043;28;20053;-66
2022/07/31 06:24:25;;;;;;;;;;;;;;;;;;5055159;28;20045;-66
2022/07/31 06:26:55;;;;;;;15.15;5.72;;;;;;;;;;5054763;28;19921;-66
2022/07/31 06:29:22;;;;;;;13.70;6.35;;;;;;;;;;5054620;28;20469;-66
2022/07/31 06:31:48;;;;;;;15.05;7.43;;;;;;;;;;5036818;28;20049;-67
2022/07/31 06:34:14;;;;;;;12.15;6.30;;;;;;;;;;5054376;28;20056;-67
2022/07/31 06:36:40;;;;;;;;;;;;;;;;;;5055663;28;20056;-66
2022/07/31 06:39:06;;;;;;;12.32;7.00;;;;;;;;;;5054288;28;20277;-67
2022/07/31 06:41:47;;;;;;;15.13;6.60;;;;;;;;;;5054308;28;20469;-74
2022/07/31 06:44:14;;;;;;;12.32;6.32;;;;;;;;;;5055048;28;20053;-67
2022/07/31 06:46:40;;;;;;;17.02;6.90;;;;;;;;;;5054211;28;20052;-66
2022/07/31 06:49:06;;;;;;;;;;;;;;;;;;5054850;28;20048;-66
2022/07/31 06:51:32;;;;;;;14.80;6.05;;;;;;;;;;5054241;28;20313;-67
2022/07/31 06:53:58;;;;;;;15.77;6.40;;;;;;;;;;5054274;28;20532;-67
2022/07/31 06:56:24;;;;;;;15.40;6.43;;;;;;;;;;5052960;28;20088;-66
2022/07/31 06:58:51;;;;;;;16.50;6.90;;;;;;;;;;5036056;28;20053;-66
2022/07/31 07:01:17;;;;;;;;;;;;;;;;;;5054304;28;20095;-67
2022/07/31 07:03:43;;;;;;;14.23;6.85;;;;;;;;;;5053794;28;19921;-70
2022/07/31 07:06:09;;;;;;;12.63;6.50;;;;;;;;;;5036987;28;20080;-69
2022/07/31 07:08:35;;;;;;;12.32;6.72;;;;;;;;;;5054129;28;20044;-68
2022/07/31 07:11:01;;;;;;;12.93;6.20;;;;;;;;;;5053649;28;20055;-67
2022/07/31 07:13:27;;;;;;;16.63;6.85;;;;;;;;;;5053674;28;20041;-68
2022/07/31 07:15:53;;;;;;;16.17;7.45;;;;;;;;;;5036647;28;20085;-69
2022/07/31 07:18:20;;;;;;;;;;;;;;;;;;5053880;28;20048;-69
2022/07/31 07:20:50;;;;;;;12.48;7.00;;;;;;;;;;5053120;28;20351;-68
2022/07/31 07:23:16;;;;;;;12.88;7.60;;;;;;;;;;5053675;28;20518;-69
2022/07/31 07:25:42;;;;;;;;;;;;;;;;;;5053814;28;20049;-69
2022/07/31 07:28:08;;;;;;;16.92;7.68;;;;;;;;;;5054005;28;20058;-68
2022/07/31 07:30:34;;;;;;;18.42;7.40;;;;;;;;;;5052854;28;20053;-69
2022/07/31 07:33:01;;;;;;;16.40;7.38;;;;;;;;;;5053064;28;20122;-68
2022/07/31 07:35:28;;;;;;;12.95;7.22;;;;;;;;;;5052992;28;20412;-68
2022/07/31 07:37:54;;;;;;;14.82;7.55;;;;;;;;;;5052785;28;20118;-68
2022/07/31 07:40:20;;;;;;;;;;;;;;;;;;5053458;28;20128;-68
2022/07/31 07:42:46;;;;;;;14.50;7.47;;;;;;;;;;5052927;28;19971;-69
2022/07/31 07:45:12;;;;;;;12.90;7.50;;;;;;;;;;5052861;28;20366;-68
2022/07/31 07:47:38;;;;;;;14.70;7.15;;;;;;;;;;5052941;28;20048;-68
2022/07/31 07:50:04;;;;;;;;;;;;;;;;;;5053748;28;20416;-68
2022/07/31 07:52:30;;;;;;;16.02;8.13;;;;;;;;;;5052595;28;19966;-70
2022/07/31 07:54:56;;;;;;;13.23;7.38;;;;;;;;;;5052888;28;20045;-69
2022/07/31 07:57:23;;;;;;;13.07;7.43;;;;;;;;;;5052384;28;20091;-70
2022/07/31 07:59:49;;;;;;;14.45;8.05;;;;;;;;;;5053140;28;20091;-69
2022/07/31 08:02:15;;;;;;;14.00;7.22;;;;;;;;;;5053552;28;20071;-68
2022/07/31 08:04:42;;;;;;;14.07;7.40;;;;;;;;;;5052705;28;20067;-68
2022/07/31 08:07:08;;;;;;;17.30;8.23;;;;;;;;;;5053339;28;20052;-71
2022/07/31 08:09:35;;;;;;;13.95;8.52;;;;;;;;;;5052314;28;20041;-69
2022/07/31 08:12:01;;;;;;;15.07;8.60;;;;;;;;;;5051747;28;20049;-70
2022/07/31 08:14:27;;;;;;;15.18;7.80;;;;;;;;;;5053230;28;20521;-71
2022/07/31 08:16:53;;;;;;;;;;;;;;;;;;5052426;28;20049;-71
2022/07/31 08:19:19;;;;;;;15.40;8.10;;;;;;;;;;5052749;28;20353;-69
2022/07/31 08:21:45;;;;;;;15.75;7.53;;;;;;;;;;5052531;28;20052;-80
2022/07/31 08:24:11;;;;;;;;;;;;;;;;;;5052505;28;20128;-71
2022/07/31 08:29:23;;;;;;;16.38;8.45;;;;;;;;;;5052578;28;20059;-71
2022/07/31 08:31:50;;;;;;;14.95;7.78;;;;;;;;;;5034593;28;20493;-74
2022/07/31 08:34:16;;;;;;;15.25;7.90;;;;;;;;;;5035073;28;20041;-74
2022/07/31 08:36:42;;;;;;;18.05;8.52;;;;;;;;;;5052762;28;20059;-73
2022/07/31 08:39:09;;;;;;;15.20;7.95;;;;;;;;;;5052129;28;20484;-71
2022/07/31 08:41:37;;;;;;;19.42;8.05;;;;;;;;;;5052303;28;20123;-70
2022/07/31 08:44:07;;;;;;;15.40;8.07;;;;;;;;;;5052623;28;20132;-70
2022/07/31 08:46:36;;;;;;;19.17;8.63;;;;;;;;;;5052682;28;20342;-70
2022/07/31 08:49:03;;;;;;;16.25;8.50;;;;;;;;;;5051743;28;20492;-70
2022/07/31 08:51:32;;;;;;;15.02;8.13;;;;;;;;;;5034170;28;20400;-71
2022/07/31 08:53:58;;;;;;;19.00;9.20;;;;;;;;;;5051793;28;20171;-70
2022/07/31 08:56:25;;;;;;;14.88;9.27;;;;;;;;;;5051746;28;20052;-72
2022/07/31 08:58:51;;;;;;;17.48;9.82;;;;;;;;;;5051546;28;20048;-72
2022/07/31 09:01:17;;;;;;;;;;;;;;;;;;5052020;28;20099;-72
2022/07/31 09:03:43;;;;;;;16.83;9.98;;;;;;;;;;5051598;28;19921;-71
2022/07/31 09:06:09;;;;;;;17.55;10.52;;;;;;;;;;5051612;28;20041;-72
2022/07/31 09:08:35;;;;;;;;;;;;;;;;;;5052011;28;20095;-73
2022/07/31 09:11:09;;;;;;;24.25;12.85;;;;;;;;;;5051647;28;19920;-73
2022/07/31 09:13:36;;;;;;;19.90;12.48;;;;;;;;;;5051631;28;20441;-72
2022/07/31 09:16:02;;;;;;;24.65;12.68;;;;;;;;;;5051693;28;20535;-81
2022/07/31 09:18:28;;;;;;;22.70;12.35;;;;;;;;;;5051608;28;20057;-72
2022/07/31 09:20:57;;;;;;;;;;;;;;;;;;5054369;28;20457;-70
2022/07/31 09:23:25;;;;;;;20.55;14.50;;;;;;;;;;5055503;28;20368;-74
2022/07/31 09:25:52;;;;;;;24.15;15.77;;;;;;;;;;5037536;28;20552;-74
2022/07/31 09:28:18;;;;;;;27.40;15.60;;;;;;;;;;5055482;28;20179;-72
2022/07/31 09:30:44;;;;;;;;;;;;;;;;;;5056170;28;20052;-74
2022/07/31 09:33:17;;;;;;;26.90;17.25;;;;;;;;;;5055265;28;19924;-69
2022/07/31 09:35:47;;;;;;;25.35;17.10;;;;;;;;;;5054746;28;20056;-71
2022/07/31 09:38:14;;;;;;;39.72;19.05;;;;;;;;;;5054921;28;20067;-71
2022/07/31 09:40:42;;;;;;;26.50;17.00;;;;;;;;;;5055979;28;20123;-78
2022/07/31 09:43:18;;;;;;;31.05;19.25;;;;;;;;;;5055850;28;20377;-82
2022/07/31 09:45:57;;;;;;;29.98;19.65;;;;;;;;;;5056106;28;20049;-85
2022/07/31 09:48:23;;;;;;;32.42;20.08;;;;;;;;;;5055810;28;20052;-79
2022/07/31 09:50:53;;;;;;;31.35;21.33;;;;;;;;;;5037589;28;20057;-76
2022/07/31 09:53:20;;;;;;;28.83;19.52;;;;;;;;;;5055424;28;20041;-72
2022/07/31 09:56:06;;;;;;;32.97;20.23;;;;;;;;;;5055553;28;20052;-75
2022/07/31 09:58:33;;;;;;;32.60;21.60;;;;;;;;;;5056278;28;20088;-79
2022/07/31 10:00:58;;;;;;;;;;;;;;;;;;5056059;28;20436;-80
2022/07/31 10:03:25;;;;;;;33.55;22.90;;;;;;;;;;5055793;28;19935;-75
2022/07/31 10:05:52;;;;;;;35.97;23.30;;;;;;;;;;5055906;28;20091;-75
2022/07/31 10:08:19;;;;;;;32.40;22.60;;;;;;;;;;5038498;28;20055;-78
2022/07/31 10:10:46;;;;;;;35.42;23.88;;;;;;;;;;5056913;28;20059;-75
2022/07/31 10:13:14;;;;;;;36.30;24.52;;;;;;;;;;5055982;28;20604;-84
2022/07/31 10:15:41;;;;;;;38.38;23.98;;;;;;;;;;5056852;28;20049;-86
2022/07/31 10:18:08;;;;;;;34.05;23.23;;;;;;;;;;5056758;28;20115;-83
2022/07/31 10:20:35;;;;;;;38.17;22.52;;;;;;;;;;5056959;28;20084;-80
2022/07/31 10:23:03;;;;;;;36.80;22.80;;;;;;;;;;5055750;28;20191;-81
2022/07/31 10:25:30;;;;;;;34.58;23.13;;;;;;;;;;5056796;28;20128;-82
2022/07/31 10:27:56;;;;;;;36.55;25.38;;;;;;;;;;5055923;28;20053;-83
2022/07/31 10:30:23;;;;;;;34.45;24.45;;;;;;;;;;5055785;28;20045;-82
2022/07/31 10:32:49;;;;;;;33.75;24.15;;;;;;;;;;5054218;28;20525;-78
2022/07/31 10:35:16;;;;;;;;;;;;;;;;;;5055991;28;20123;-80
2022/07/31 10:37:49;;;;;;;38.60;25.23;;;;;;;;;;5055699;28;20434;-85
2022/07/31 10:40:33;;;;;;;43.88;27.63;;;;;;;;;;5056530;28;20045;-79
2022/07/31 10:43:14;;;;;;;41.80;26.90;;;;;;;;;;5055828;28;20049;-85
2022/07/31 10:45:50;;;;;;;37.15;25.98;;;;;;;;;;5055718;28;20051;-71
2022/07/31 10:48:16;;;;;;;42.33;27.20;;;;;;;;;;5055457;28;20134;-74
2022/07/31 10:50:42;;;;;;;;;;;;;;;;;;5038021;28;20052;-79
2022/07/31 10:53:09;;;;;;;42.58;28.92;;;;;;;;;;5055160;28;19920;-77
2022/07/31 10:55:36;;;;;;;48.70;31.90;;;;;;;;;;5055650;28;20163;-79
2022/07/31 10:58:02;;;;;;;;;;;;;;;;;;5055942;28;20049;-80
2022/07/31 11:00:28;;;;;;;52.33;34.45;;;;;;;;;;5056127;28;19921;-78
2022/07/31 11:02:54;;;;;;;49.65;32.53;;;;;;;;;;5055394;28;20045;-81
2022/07/31 11:05:26;;;;;;;;;;;;;;;;;;5055563;28;20053;-83
2022/07/31 11:08:03;;;;;;;59.65;34.65;;;;;;;;;;5055043;28;19920;-76
2022/07/31 11:10:29;;;;;;;56.80;34.78;;;;;;;;;;5037444;28;20041;-78
2022/07/31 11:13:06;;;;;;;62.97;39.55;;;;;;;;;;5054978;28;20059;-76
2022/07/31 11:15:33;;;;;;;65.93;37.72;;;;;;;;;;5055775;28;20045;-82
2022/07/31 11:18:10;;;;;;;62.78;38.33;;;;;;;;;;5037177;28;20096;-75
2022/07/31 11:20:35;;;;;;;;;;;;;;;;;;5055229;28;20045;-77
2022/07/31 11:23:06;;;;;;;57.70;36.85;;;;;;;;;;5054842;28;19920;-84
2022/07/31 11:25:34;;;;;;;54.65;36.92;;;;;;;;;;5037083;28;20051;-80
2022/07/31 11:28:13;;;;;;;62.50;37.83;;;;;;;;;;5054750;28;20527;-71
2022/07/31 11:30:49;;;;;;;61.83;38.70;;;;;;;;;;5054755;28;20040;-69
2022/07/31 11:33:16;;;;;;;66.72;38.88;;;;;;;;;;5054590;28;20084;-70
2022/07/31 11:35:42;;;;;;;64.45;40.88;;;;;;;;;;5054525;28;20366;-71
2022/07/31 11:38:08;;;;;;;;;;;;;;;;;;5055493;28;20095;-70
2022/07/31 11:40:34;;;;;;;74.63;42.47;;;;;;;;;;5054827;28;19939;-72
2022/07/31 11:43:00;;;;;;;58.47;36.80;;;;;;;;;;5054037;28;20045;-72
2022/07/31 11:45:26;;;;;;;70.07;40.67;;;;;;;;;;5054482;28;20048;-70
2022/07/31 11:47:54;;;;;;;;;;;;;;;;;;5054762;28;20045;-70
2022/07/31 11:50:20;;;;;;;71.93;40.60;;;;;;;;;;5054349;28;19944;-70
2022/07/31 11:52:47;;;;;;;52.55;34.75;;;;;;;;;;5054386;28;20102;-69
2022/07/31 11:55:14;;;;;;;61.95;37.83;;;;;;;;;;5054142;28;20045;-68
2022/07/31 11:57:41;;;;;;;58.40;36.40;;;;;;;;;;5054062;28;20481;-70
2022/07/31 12:00:14;;;;;;;81.65;43.13;;;;;;;;;;5054910;28;20048;-67
2022/07/31 12:02:45;;;;;;;75.90;41.15;;;;;;;;;;5054906;28;20049;-66
2022/07/31 12:05:12;;;;;;;72.32;40.00;;;;;;;;;;5054545;28;20037;-67
2022/07/31 12:07:42;;;;;;;67.05;40.22;;;;;;;;;;5053814;28;20118;-66
2022/07/31 12:10:12;;;;;;;80.53;44.90;;;;;;;;;;5054432;28;20084;-68
2022/07/31 12:12:39;;;;;;;64.78;37.75;;;;;;;;;;5053754;28;20056;-67
2022/07/31 12:15:15;;;;;;;78.38;42.05;;;;;;;;;;5053838;28;20196;-68
2022/07/31 12:17:41;;;;;;;64.38;37.90;;;;;;;;;;5053838;28;20056;-67
2022/07/31 12:20:08;;;;;;;78.05;40.97;;;;;;;;;;5053805;28;20051;-66
2022/07/31 12:22:35;;;;;;;61.28;36.75;;;;;;;;;;5053777;28;20040;-68
2022/07/31 12:25:01;;;;;;;60.55;38.05;;;;;;;;;;5053687;28;20052;-66
2022/07/31 12:27:27;;;;;;;55.47;36.80;;;;;;;;;;5036471;28;20397;-66
2022/07/31 12:29:53;;;;;;;;;;;;;;;;;;5054609;28;20060;-66
2022/07/31 12:32:25;;;;;;;56.30;33.17;;;;;;;;;;5053568;28;19921;-69
2022/07/31 12:35:04;;;;;;;71.95;36.20;;;;;;;;;;5035706;28;20054;-65
2022/07/31 12:37:42;;;;;;;61.30;32.75;;;;;;;;;;5053986;28;20056;-67
2022/07/31 12:40:08;;;;;;;83.47;37.92;;;;;;;;;;5053793;28;20103;-64
2022/07/31 12:42:34;;;;;;;;;;;;;;;;;;5053877;28;20167;-65
2022/07/31 12:45:00;;;;;;;59.67;32.97;;;;;;;;;;5053361;28;19999;-67
2022/07/31 12:47:28;;;;;;;62.88;32.65;;;;;;;;;;5053315;28;20052;-67
2022/07/31 12:49:55;;;;;;;71.82;35.88;;;;;;;;;;5053177;28;20064;-66
2022/07/31 12:52:22;;;;;;;50.15;30.33;;;;;;;;;;5053479;28;20349;-65
2022/07/31 12:54:48;;;;;;;64.07;34.55;;;;;;;;;;5052599;28;20045;-68
2022/07/31 12:57:14;;;;;;;63.00;34.97;;;;;;;;;;5053268;28;20052;-65
2022/07/31 12:59:40;;;;;;;65.95;34.90;;;;;;;;;;5053233;28;20128;-66
2022/07/31 13:02:07;;;;;;;69.38;37.40;;;;;;;;;;5053198;28;20052;-66
2022/07/31 13:04:32;;;;;;;;;;;;;;;;;;5054020;28;20044;-66
2022/07/31 13:06:59;;;;;;;76.05;36.00;;;;;;;;;;5053062;28;19916;-66
2022/07/31 13:09:25;;;;;;;66.32;36.42;;;;;;;;;;5053247;28;20075;-67
2022/07/31 13:11:51;;;;;;;122.07;44.05;;;;;;;;;;5053201;28;20174;-66
2022/07/31 13:14:17;;;;;;;;;;;;;;;;;;5053602;28;20033;-66
2022/07/31 13:16:44;;;;;;;62.03;34.50;;;;;;;;;;5053540;28;20249;-66
2022/07/31 13:19:11;;;;;;;67.00;36.13;;;;;;;;;;5053104;28;20041;-66
2022/07/31 13:21:37;;;;;;;71.93;36.63;;;;;;;;;;5053119;28;20049;-69
2022/07/31 13:24:07;;;;;;;81.13;40.58;;;;;;;;;;5053043;28;20044;-68
2022/07/31 13:26:33;;;;;;;106.63;42.45;;;;;;;;;;5053289;28;20110;-67
2022/07/31 13:29:00;;;;;;;78.85;35.75;;;;;;;;;;5053139;28;20049;-68
2022/07/31 13:31:26;;;;;;;78.15;33.65;;;;;;;;;;5053017;28;20045;-66
2022/07/31 13:33:52;;;;;;;71.43;31.63;;;;;;;;;;5035467;28;20045;-64
2022/07/31 13:36:18;;;;;;;63.75;30.85;;;;;;;;;;5053080;28;20162;-66
2022/07/31 13:38:44;;;;;;;54.80;28.55;;;;;;;;;;5052856;28;20103;-64
2022/07/31 13:43:55;;;;;;;69.25;34.40;;;;;;;;;;5052568;28;20409;-66
2022/07/31 13:46:21;;;;;;;;;;;;;;;;;;5054105;28;20041;-65
2022/07/31 13:48:47;;;;;;;46.40;24.67;;;;;;;;;;5034883;28;20367;-67
2022/07/31 13:51:13;;;;;;;34.88;19.25;;;;;;;;;;5052550;28;20045;-67
2022/07/31 13:53:39;;;;;;;;;;;;;;;;;;5053258;28;20033;-67
2022/07/31 13:56:05;;;;;;;31.45;18.15;;;;;;;;;;5052854;28;19920;-69
2022/07/31 13:58:31;;;;;;;33.60;19.02;;;;;;;;;;5052557;28;20113;-66
2022/07/31 14:00:58;;;;;;;36.55;20.33;;;;;;;;;;5034666;28;20049;-68
2022/07/31 14:03:24;;;;;;;42.65;20.10;;;;;;;;;;5051864;28;20496;-67
2022/07/31 14:05:51;;;;;;;43.47;21.45;;;;;;;;;;5052946;28;20131;-67
2022/07/31 14:08:17;;;;;;;35.03;18.10;;;;;;;;;;5055778;28;20052;-66
2022/07/31 14:10:44;;;;;;;36.30;18.05;;;;;;;;;;5056466;28;20041;-68
2022/07/31 14:13:10;;;;;;;29.58;15.70;;;;;;;;;;5055965;28;20032;-68
2022/07/31 14:15:36;;;;;;;;;;;;;;;;;;5056542;28;20040;-69
2022/07/31 14:18:03;;;;;;;44.90;17.88;;;;;;;;;;5056040;28;19939;-68
2022/07/31 14:20:31;;;;;;;;;;;;;;;;;;5056393;28;20178;-71
2022/07/31 14:22:57;;;;;;;23.85;12.63;;;;;;;;;;5055751;28;19923;-72
2022/07/31 14:25:23;;;;;;;23.92;12.20;;;;;;;;;;5055239;28;20384;-69
2022/07/31 14:27:52;;;;;;;24.42;10.98;;;;;;;;;;5037879;28;20396;-69
2022/07/31 14:30:18;;;;;;;19.42;10.30;;;;;;;;;;5056310;28;20044;-69
2022/07/31 14:32:44;;;;;;;;;;;;;;;;;;5055670;28;20044;-70
2022/07/31 14:35:10;;;;;;;18.98;8.70;;;;;;;;;;5055084;28;20360;-69
2022/07/31 14:37:36;;;;;;;;;;;;;;;;;;5055127;28;20126;-69
2022/07/31 14:40:03;;;;;;;14.32;6.40;;;;;;;;;;5054827;28;20007;-68
2022/07/31 14:42:29;;;;;;;14.98;6.82;;;;;;;;;;5055756;28;20048;-71
2022/07/31 14:44:55;;;;;;;14.15;7.10;;;;;;;;;;5055005;28;20041;-71
2022/07/31 14:47:21;;;;;;;19.13;9.07;;;;;;;;;;5055057;28;20389;-68
2022/07/31 14:49:47;;;;;;;13.75;7.22;;;;;;;;;;5054829;28;20482;-69
2022/07/31 14:52:14;;;;;;;14.43;7.35;;;;;;;;;;5054914;28;20461;-69
2022/07/31 14:54:40;;;;;;;15.68;8.38;;;;;;;;;;5054912;28;20041;-69